createdAt,value
2023-11-16T00:01:59.744Z,2.13
2023-11-16T00:04:29.050Z,2.65
2023-11-16T00:06:57.838Z,3.13
2023-11-16T00:09:25.640Z,2.08
2023-11-16T00:11:53.935Z,1.83
2023-11-16T00:14:22.092Z,1.63
2023-11-16T00:16:51.137Z,2.10
2023-11-16T00:19:19.621Z,1.65
2023-11-16T00:21:47.552Z,1.98
2023-11-16T00:24:15.329Z,1.77
2023-11-16T00:26:43.073Z,1.92
2023-11-16T00:29:11.038Z,1.60
2023-11-16T00:31:38.895Z,1.50
2023-11-16T00:34:08.037Z,2.83
2023-11-16T00:36:39.106Z,1.60
2023-11-16T00:39:09.180Z,2.65
2023-11-16T00:41:37.111Z,1.95
2023-11-16T00:44:06.471Z,1.42
2023-11-16T00:46:35.136Z,1.70
2023-11-16T00:49:03.261Z,1.88
2023-11-16T00:51:33.412Z,2.58
2023-11-16T00:54:01.285Z,1.48
2023-11-16T00:56:29.045Z,2.28
2023-11-16T00:58:56.991Z,2.38
2023-11-16T01:01:24.958Z,2.45
2023-11-16T01:03:54.449Z,1.42
2023-11-16T01:06:22.361Z,2.00
2023-11-16T01:08:51.472Z,1.40
2023-11-16T01:11:28.588Z,1.80
2023-11-16T01:13:56.551Z,2.55
2023-11-16T01:16:31.415Z,1.48
2023-11-16T01:19:01.443Z,1.85
2023-11-16T01:21:30.856Z,2.05
2023-11-16T01:24:06.670Z,1.23
2023-11-16T01:26:36.219Z,1.45
2023-11-16T01:29:07.740Z,1.10
2023-11-16T01:31:35.637Z,1.80
2023-11-16T01:34:03.431Z,2.25
2023-11-16T01:36:31.369Z,1.75
2023-11-16T01:39:00.492Z,1.25
2023-11-16T01:41:28.224Z,1.92
2023-11-16T01:43:57.329Z,1.92
2023-11-16T01:46:27.441Z,1.42
2023-11-16T01:48:57.858Z,1.65
2023-11-16T01:51:29.517Z,1.13
2023-11-16T01:53:59.992Z,2.33
2023-11-16T01:56:32.690Z,1.40
2023-11-16T01:59:03.639Z,1.65
2023-11-16T02:01:32.414Z,1.52
2023-11-16T02:04:00.371Z,1.17
2023-11-16T02:06:28.625Z,1.35
2023-11-16T02:08:56.333Z,1.17
2023-11-16T02:11:24.306Z,0.75
2023-11-16T02:13:54.124Z,0.93
2023-11-16T02:16:21.956Z,2.50
2023-11-16T02:18:49.901Z,1.25
2023-11-16T02:21:18.534Z,0.85
2023-11-16T02:23:49.500Z,1.45
2023-11-16T02:26:17.238Z,1.85
2023-11-16T02:28:44.958Z,1.83
2023-11-16T02:31:12.743Z,1.42
2023-11-16T02:33:40.724Z,1.55
2023-11-16T02:36:11.891Z,1.65
2023-11-16T02:38:40.110Z,2.33
2023-11-16T02:41:10.272Z,1.13
2023-11-16T02:43:37.981Z,1.63
2023-11-16T02:46:06.350Z,1.52
2023-11-16T02:48:34.117Z,1.08
2023-11-16T02:51:02.008Z,0.95
2023-11-16T02:53:29.813Z,1.95
2023-11-16T02:55:57.523Z,0.98
2023-11-16T02:58:26.629Z,1.33
2023-11-16T03:00:55.678Z,1.10
2023-11-16T03:03:24.938Z,2.17
2023-11-16T03:05:52.741Z,1.25
2023-11-16T03:08:20.526Z,1.25
2023-11-16T03:10:48.991Z,1.15
2023-11-16T03:13:17.648Z,1.23
2023-11-16T03:15:49.155Z,1.17
2023-11-16T03:18:17.454Z,2.05
2023-11-16T03:20:47.186Z,2.25
2023-11-16T03:23:15.827Z,0.82
2023-11-16T03:25:44.065Z,1.20
2023-11-16T03:28:11.806Z,1.10
2023-11-16T03:30:40.470Z,1.20
2023-11-16T03:33:12.829Z,1.83
2023-11-16T03:35:40.859Z,2.55
2023-11-16T03:38:08.644Z,1.52
2023-11-16T03:40:36.747Z,1.10
2023-11-16T03:43:04.559Z,0.73
2023-11-16T03:45:32.302Z,1.10
2023-11-16T03:48:00.125Z,1.00
2023-11-16T03:50:29.530Z,1.92
2023-11-16T03:52:57.604Z,1.27
2023-11-16T03:55:25.333Z,0.95
2023-11-16T03:57:53.077Z,2.10
2023-11-16T04:00:22.875Z,0.73
2023-11-16T04:02:50.977Z,1.40
2023-11-16T04:05:19.599Z,1.15
2023-11-16T04:07:48.909Z,1.17
2023-11-16T04:10:16.841Z,1.10
2023-11-16T04:12:44.629Z,1.55
2023-11-16T04:15:14.643Z,1.05
2023-11-16T04:17:44.508Z,0.80
2023-11-16T04:20:13.835Z,1.02
2023-11-16T04:22:41.591Z,1.17
2023-11-16T04:25:20.242Z,0.88
2023-11-16T04:27:50.362Z,0.85
2023-11-16T04:30:19.488Z,1.05
2023-11-16T04:32:47.769Z,0.82
2023-11-16T04:35:16.794Z,1.42
2023-11-16T04:37:44.695Z,2.00
2023-11-16T04:40:15.116Z,1.20
2023-11-16T04:42:44.483Z,0.68
2023-11-16T04:45:13.035Z,0.45
2023-11-16T04:47:45.190Z,0.82
2023-11-16T04:50:14.940Z,1.15
2023-11-16T04:52:42.758Z,0.65
2023-11-16T04:55:13.679Z,0.80
2023-11-16T04:57:43.915Z,0.65
2023-11-16T05:00:14.906Z,1.10
2023-11-16T05:02:44.231Z,0.77
2023-11-16T05:05:12.079Z,1.73
2023-11-16T05:07:38.867Z,0.63
2023-11-16T05:10:08.634Z,1.27
2023-11-16T05:12:36.504Z,1.08
2023-11-16T05:15:07.962Z,0.28
2023-11-16T05:17:36.969Z,0.57
2023-11-16T05:20:05.811Z,0.65
2023-11-16T05:22:33.598Z,0.50
2023-11-16T05:25:01.426Z,0.63
2023-11-16T05:27:29.431Z,0.73
2023-11-16T05:29:57.188Z,0.40
2023-11-16T05:32:26.310Z,0.50
2023-11-16T05:34:54.062Z,0.57
2023-11-16T05:37:21.898Z,1.42
2023-11-16T05:39:49.704Z,0.80
2023-11-16T05:42:18.328Z,0.50
2023-11-16T05:44:46.605Z,0.35
2023-11-16T05:47:14.849Z,0.60
2023-11-16T05:49:43.965Z,0.50
2023-11-16T05:52:11.786Z,0.30
2023-11-16T05:54:39.635Z,0.50
2023-11-16T05:57:07.403Z,0.70
2023-11-16T05:59:35.183Z,0.20
2023-11-16T06:02:02.920Z,0.80
2023-11-16T06:04:30.763Z,0.30
2023-11-16T06:07:00.004Z,0.50
2023-11-16T06:09:27.747Z,0.47
2023-11-16T06:11:55.470Z,0.40
2023-11-16T06:14:30.667Z,0.45
2023-11-16T06:17:06.159Z,0.50
2023-11-16T06:19:33.934Z,0.52
2023-11-16T06:22:03.048Z,0.40
2023-11-16T06:24:30.810Z,0.22
2023-11-16T06:26:58.592Z,0.15
2023-11-16T06:29:26.354Z,0.40
2023-11-16T06:31:54.192Z,0.38
2023-11-16T06:34:22.050Z,0.20
2023-11-16T06:36:49.878Z,0.47
2023-11-16T06:39:19.057Z,0.57
2023-11-16T06:41:46.752Z,0.38
2023-11-16T06:44:20.167Z,0.35
2023-11-16T06:49:15.867Z,0.82
2023-11-16T06:51:43.708Z,0.65
2023-11-16T06:54:12.890Z,0.63
2023-11-16T06:56:42.128Z,1.48
2023-11-16T06:59:13.960Z,0.85
2023-11-16T07:01:43.712Z,1.17
2023-11-16T07:04:12.497Z,0.80
2023-11-16T07:06:40.321Z,1.02
2023-11-16T07:09:08.089Z,2.05
2023-11-16T07:11:35.843Z,1.17
2023-11-16T07:14:04.964Z,2.67
2023-11-16T07:16:34.278Z,2.63
2023-11-16T07:19:02.237Z,3.13
2023-11-16T07:21:30.045Z,1.50
2023-11-16T07:23:57.765Z,2.33
2023-11-16T07:26:26.028Z,4.72
2023-11-16T07:28:53.696Z,3.10
2023-11-16T07:31:22.932Z,3.50
2023-11-16T07:33:53.545Z,2.92
2023-11-16T07:36:26.919Z,2.63
2023-11-16T07:41:22.734Z,2.47
2023-11-16T07:43:50.782Z,4.20
2023-11-16T07:46:20.566Z,2.45
2023-11-16T07:48:50.334Z,3.17
2023-11-16T07:51:20.946Z,3.60
2023-11-16T07:53:54.589Z,2.65
2023-11-16T07:56:24.070Z,6.35
2023-11-16T07:58:53.842Z,3.42
2023-11-16T08:01:29.805Z,2.75
2023-11-16T08:03:58.415Z,2.78
2023-11-16T08:06:31.394Z,2.33
2023-11-16T08:08:59.788Z,2.08
2023-11-16T08:11:27.759Z,3.60
2023-11-16T08:13:58.337Z,3.63
2023-11-16T08:16:27.354Z,3.30
2023-11-16T08:18:56.011Z,2.20
2023-11-16T08:21:26.584Z,4.10
2023-11-16T08:23:55.662Z,2.95
2023-11-16T08:26:24.007Z,3.17
2023-11-16T08:28:52.274Z,2.50
2023-11-16T08:31:20.349Z,2.90
2023-11-16T08:33:49.082Z,4.18
2023-11-16T08:36:18.054Z,4.82
2023-11-16T08:38:48.369Z,2.25
2023-11-16T08:41:18.116Z,2.80
2023-11-16T08:43:46.974Z,2.88
2023-11-16T08:46:21.902Z,4.15
2023-11-16T08:48:50.408Z,3.95
2023-11-16T08:51:18.291Z,5.78
2023-11-16T08:53:51.513Z,1.83
2023-11-16T08:56:26.556Z,2.97
2023-11-16T08:59:00.078Z,2.67
2023-11-16T09:01:28.795Z,4.00
2023-11-16T09:03:58.478Z,2.70
2023-11-16T09:06:27.277Z,4.05
2023-11-16T09:08:57.573Z,2.67
2023-11-16T09:11:28.412Z,5.22
2023-11-16T09:13:56.131Z,1.92
2023-11-16T09:16:23.871Z,2.22
2023-11-16T09:18:51.720Z,3.38
2023-11-16T09:21:20.345Z,1.90
2023-11-16T09:23:48.090Z,3.33
2023-11-16T09:26:19.663Z,2.05
2023-11-16T09:28:57.937Z,2.65
2023-11-16T09:31:30.502Z,2.58
2023-11-16T09:34:00.070Z,2.80
2023-11-16T09:36:28.430Z,2.08
2023-11-16T09:38:58.083Z,2.58
2023-11-16T09:41:29.785Z,4.93
2023-11-16T09:44:02.819Z,3.40
2023-11-16T09:46:33.002Z,2.97
2023-11-16T09:49:01.283Z,3.17
2023-11-16T09:51:30.448Z,2.33
2023-11-16T09:54:01.734Z,2.90
2023-11-16T09:56:38.862Z,2.50
2023-11-16T09:59:14.860Z,3.50
2023-11-16T10:04:16.023Z,3.30
2023-11-16T10:06:49.610Z,1.85
2023-11-16T10:09:17.824Z,3.58
2023-11-16T10:11:46.924Z,3.75
2023-11-16T10:14:14.655Z,3.88
2023-11-16T10:16:42.541Z,2.35
2023-11-16T10:19:12.268Z,2.40
2023-11-16T10:21:41.466Z,2.20
2023-11-16T10:24:11.188Z,4.22
2023-11-16T10:26:40.243Z,3.08
2023-11-16T10:29:11.319Z,2.97
2023-11-16T10:31:45.886Z,3.28
2023-11-16T10:34:14.233Z,1.50
2023-11-16T10:36:42.460Z,1.85
2023-11-16T10:39:13.115Z,2.45
2023-11-16T10:41:41.893Z,3.53
2023-11-16T10:44:11.259Z,2.00
2023-11-16T10:46:41.245Z,3.17
2023-11-16T10:49:10.589Z,2.25
2023-11-16T10:51:40.128Z,3.75
2023-11-16T10:54:13.488Z,2.22
2023-11-16T10:56:43.671Z,2.30
2023-11-16T10:59:15.397Z,3.28
2023-11-16T11:01:44.064Z,1.90
2023-11-16T11:04:12.938Z,1.83
2023-11-16T11:06:43.714Z,4.18
2023-11-16T11:09:17.068Z,2.13
2023-11-16T11:11:46.854Z,2.20
2023-11-16T11:14:24.687Z,2.65
2023-11-16T11:16:53.058Z,1.58
2023-11-16T11:19:27.341Z,1.40
2023-11-16T11:22:02.056Z,1.20
2023-11-16T11:24:30.276Z,2.85
2023-11-16T11:26:58.131Z,2.13
2023-11-16T11:29:27.270Z,1.35
2023-11-16T11:32:04.041Z,1.70
2023-11-16T11:34:35.813Z,1.17
2023-11-16T11:37:08.422Z,1.35
2023-11-16T11:39:39.740Z,1.13
2023-11-16T11:42:07.706Z,2.20
2023-11-16T11:44:36.794Z,2.28
2023-11-16T11:47:07.222Z,1.33
2023-11-16T11:49:35.586Z,0.68
2023-11-16T11:52:04.802Z,1.67
2023-11-16T11:54:37.548Z,1.67
2023-11-16T11:57:06.986Z,0.73
2023-11-16T11:59:37.638Z,0.88
2023-11-16T12:02:08.385Z,1.70
2023-11-16T12:04:36.702Z,0.57
2023-11-16T12:07:08.782Z,1.38
2023-11-16T12:09:38.014Z,0.90
2023-11-16T12:12:06.632Z,0.40
2023-11-16T12:14:47.259Z,0.43
2023-11-16T12:17:16.820Z,0.40
2023-11-16T12:19:49.656Z,0.60
2023-11-16T12:24:47.462Z,0.40
2023-11-16T12:27:17.213Z,0.20
2023-11-16T12:29:56.490Z,0.60
2023-11-16T12:32:27.580Z,0.52
2023-11-16T12:34:55.732Z,0.50
2023-11-16T12:37:23.810Z,0.40
2023-11-16T12:39:52.444Z,0.43
2023-11-16T12:42:24.030Z,0.22
2023-11-16T12:44:52.505Z,0.45
2023-11-16T12:47:23.124Z,0.65
2023-11-16T12:49:53.376Z,0.30
2023-11-16T12:52:21.546Z,0.40
2023-11-16T12:54:49.575Z,0.32
2023-11-16T12:57:17.639Z,0.40
2023-11-16T12:59:46.306Z,0.90
2023-11-16T13:02:14.631Z,1.00
2023-11-16T13:04:43.986Z,0.32
2023-11-16T13:07:11.798Z,0.40
2023-11-16T13:09:39.575Z,0.30
2023-11-16T13:12:16.507Z,0.60
2023-11-16T13:14:50.013Z,0.35
2023-11-16T13:17:17.817Z,0.95
2023-11-16T13:19:47.228Z,0.40
2023-11-16T13:22:15.085Z,0.60
2023-11-16T13:24:42.949Z,0.90
2023-11-16T13:27:10.745Z,1.10
2023-11-16T13:29:38.751Z,0.55
2023-11-16T13:32:07.249Z,1.27
2023-11-16T13:34:35.032Z,0.80
2023-11-16T13:37:06.120Z,0.98
2023-11-16T13:39:34.307Z,0.68
2023-11-16T13:42:02.596Z,0.20
2023-11-16T13:44:33.092Z,0.30
2023-11-16T13:47:03.356Z,0.22
2023-11-16T13:49:32.615Z,0.20
2023-11-16T13:52:00.395Z,1.08
2023-11-16T13:54:29.564Z,0.57
2023-11-16T13:56:57.330Z,1.55
2023-11-16T13:59:25.037Z,0.63
2023-11-16T14:01:52.812Z,0.63
2023-11-16T14:04:21.101Z,0.60
2023-11-16T14:06:48.893Z,0.85
2023-11-16T14:09:21.365Z,0.40
2023-11-16T14:11:50.481Z,0.60
2023-11-16T14:14:18.186Z,1.77
2023-11-16T14:16:46.043Z,0.43
2023-11-16T14:19:13.971Z,0.20
2023-11-16T14:21:41.780Z,0.63
2023-11-16T14:24:14.473Z,0.57
2023-11-16T14:26:45.002Z,0.73
2023-11-16T14:29:14.230Z,0.40
2023-11-16T14:31:42.302Z,0.70
2023-11-16T14:34:10.232Z,0.40
2023-11-16T14:36:38.048Z,0.85
2023-11-16T14:39:08.270Z,0.68
2023-11-16T14:41:36.023Z,0.85
2023-11-16T14:44:03.729Z,0.60
2023-11-16T14:46:33.958Z,0.88
2023-11-16T14:49:03.643Z,0.50
2023-11-16T14:51:31.640Z,0.88
2023-11-16T14:54:00.183Z,0.38
2023-11-16T14:56:28.176Z,2.13
2023-11-16T14:58:55.931Z,0.77
2023-11-16T15:01:24.210Z,0.43
2023-11-16T15:03:53.469Z,0.70
2023-11-16T15:06:21.255Z,0.60
2023-11-16T15:08:49.236Z,0.52
2023-11-16T15:11:17.198Z,0.75
2023-11-16T15:13:55.103Z,1.75
2023-11-16T15:16:28.887Z,0.90
2023-11-16T15:18:58.028Z,0.98
2023-11-16T15:21:25.787Z,0.60
2023-11-16T15:23:53.540Z,1.08
2023-11-16T15:26:22.843Z,2.53
2023-11-16T15:28:50.718Z,0.68
2023-11-16T15:31:18.695Z,0.50
2023-11-16T15:33:46.708Z,0.80
2023-11-16T15:36:16.176Z,0.75
2023-11-16T15:38:45.346Z,1.15
2023-11-16T15:41:13.177Z,1.05
2023-11-16T15:43:40.911Z,1.20
2023-11-16T15:46:09.864Z,1.90
2023-11-16T15:48:37.739Z,0.80
2023-11-16T15:51:07.694Z,0.98
2023-11-16T15:53:37.529Z,1.20
2023-11-16T15:56:09.290Z,2.17
2023-11-16T15:58:38.299Z,0.70
2023-11-16T16:01:07.834Z,1.30
2023-11-16T16:03:36.535Z,0.50
2023-11-16T16:06:05.379Z,1.55
2023-11-16T16:08:33.108Z,1.77
2023-11-16T16:11:03.141Z,0.90
2023-11-16T16:13:30.824Z,1.15
2023-11-16T16:15:58.761Z,1.88
2023-11-16T16:18:28.309Z,1.45
2023-11-16T16:20:56.167Z,0.88
2023-11-16T16:23:23.943Z,2.08
2023-11-16T16:25:51.700Z,2.30
2023-11-16T16:28:20.767Z,1.40
2023-11-16T16:30:48.840Z,1.35
2023-11-16T16:33:16.772Z,1.77
2023-11-16T16:35:45.643Z,1.52
2023-11-16T16:38:13.390Z,1.73
2023-11-16T16:40:41.151Z,1.73
2023-11-16T16:43:09.349Z,1.58
2023-11-16T16:45:38.533Z,2.15
2023-11-16T16:48:09.491Z,2.40
2023-11-16T16:50:37.644Z,1.20
2023-11-16T16:53:05.393Z,1.10
2023-11-16T16:55:33.081Z,1.05
2023-11-16T16:58:00.955Z,2.40
2023-11-16T17:00:28.809Z,2.65
2023-11-16T17:02:57.945Z,1.38
2023-11-16T17:05:25.723Z,2.40
2023-11-16T17:07:53.620Z,1.80
2023-11-16T17:10:27.896Z,1.63
2023-11-16T17:12:55.948Z,1.10
2023-11-16T17:15:23.772Z,1.67
2023-11-16T17:17:52.209Z,2.17
2023-11-16T17:20:21.702Z,1.63
2023-11-16T17:22:49.421Z,1.50
2023-11-16T17:25:17.296Z,1.67
2023-11-16T17:27:49.413Z,1.77
2023-11-16T17:30:18.581Z,1.63
2023-11-16T17:32:46.779Z,2.88
2023-11-16T17:35:15.250Z,1.98
2023-11-16T17:37:44.938Z,3.47
2023-11-16T17:40:15.870Z,3.53
2023-11-16T17:42:44.892Z,2.75
2023-11-16T17:45:20.436Z,3.40
2023-11-16T17:47:48.227Z,3.85
2023-11-16T17:50:16.325Z,4.25
2023-11-16T17:52:45.459Z,2.08
2023-11-16T17:55:15.846Z,1.92
2023-11-16T17:57:43.707Z,2.35
2023-11-16T18:00:12.428Z,2.13
2023-11-16T18:02:41.151Z,1.85
2023-11-16T18:05:13.494Z,1.55
2023-11-16T18:07:43.225Z,2.17
2023-11-16T18:10:14.636Z,3.72
2023-11-16T18:12:46.256Z,2.78
2023-11-16T18:15:16.409Z,2.85
2023-11-16T18:17:45.289Z,2.75
2023-11-16T18:20:14.839Z,3.58
2023-11-16T18:22:43.128Z,1.33
2023-11-16T18:25:16.260Z,2.20
2023-11-16T18:27:44.848Z,2.17
2023-11-16T18:30:14.192Z,1.80
2023-11-16T18:32:42.586Z,1.65
2023-11-16T18:35:10.859Z,2.28
2023-11-16T18:37:39.042Z,1.50
2023-11-16T18:40:10.063Z,1.98
2023-11-16T18:42:40.884Z,2.85
2023-11-16T18:45:09.647Z,2.25
2023-11-16T18:47:37.696Z,2.72
2023-11-16T18:50:06.525Z,1.80
2023-11-16T18:52:34.307Z,1.45
2023-11-16T18:55:02.312Z,1.98
2023-11-16T18:57:31.086Z,2.78
2023-11-16T19:00:00.243Z,3.20
2023-11-16T19:02:27.998Z,2.90
2023-11-16T19:05:01.499Z,3.38
2023-11-16T19:07:29.324Z,2.65
2023-11-16T19:09:57.054Z,2.03
2023-11-16T19:12:25.922Z,2.90
2023-11-16T19:14:53.641Z,2.75
2023-11-16T19:17:23.015Z,3.33
2023-11-16T19:19:51.171Z,1.77
2023-11-16T19:22:20.724Z,1.98
2023-11-16T19:24:48.542Z,1.98
2023-11-16T19:27:17.777Z,2.45
2023-11-16T19:29:45.477Z,2.15
2023-11-16T19:32:13.179Z,1.75
2023-11-16T19:34:42.293Z,2.10
2023-11-16T19:37:10.078Z,2.53
2023-11-16T19:39:45.691Z,2.63
2023-11-16T19:42:14.323Z,2.42
2023-11-16T19:44:42.071Z,1.98
2023-11-16T19:47:15.449Z,0.85
2023-11-16T19:49:48.905Z,1.55
2023-11-16T19:52:16.678Z,3.15
2023-11-16T19:54:44.487Z,2.17
2023-11-16T19:57:12.328Z,1.38
2023-11-16T19:59:40.233Z,1.33
2023-11-16T20:02:11.710Z,1.88
2023-11-16T20:04:40.551Z,1.50
2023-11-16T20:07:10.624Z,1.30
2023-11-16T20:09:39.456Z,1.42
2023-11-16T20:12:09.814Z,1.50
2023-11-16T20:14:37.551Z,1.55
2023-11-16T20:17:08.153Z,0.95
2023-11-16T20:19:37.998Z,1.08
2023-11-16T20:22:08.299Z,1.48
2023-11-16T20:24:37.496Z,2.70
2023-11-16T20:27:07.602Z,2.13
2023-11-16T20:29:36.499Z,1.17
2023-11-16T20:32:06.643Z,1.92
2023-11-16T20:34:36.606Z,1.48
2023-11-16T20:37:06.356Z,1.88
2023-11-16T20:39:34.359Z,1.55
2023-11-16T20:42:05.135Z,1.30
2023-11-16T20:44:33.447Z,1.98
2023-11-16T20:47:01.470Z,1.75
2023-11-16T20:49:29.226Z,1.38
2023-11-16T20:51:56.917Z,0.98
2023-11-16T20:54:24.693Z,1.08
2023-11-16T20:56:52.429Z,1.00
2023-11-16T20:59:22.581Z,2.05
2023-11-16T21:01:53.376Z,1.40
2023-11-16T21:04:21.240Z,1.90
2023-11-16T21:06:49.387Z,1.20
2023-11-16T21:09:18.368Z,2.35
2023-11-16T21:11:46.083Z,1.25
2023-11-16T21:14:13.779Z,2.03
2023-11-16T21:16:42.997Z,2.20
2023-11-16T21:19:13.493Z,1.52
2023-11-16T21:21:41.343Z,1.52
2023-11-16T21:24:10.539Z,1.40
2023-11-16T21:26:38.275Z,1.20
2023-11-16T21:29:06.069Z,2.03
2023-11-16T21:31:34.007Z,1.42
2023-11-16T21:34:04.149Z,1.00
2023-11-16T21:36:32.250Z,1.25
2023-11-16T21:39:00.898Z,1.10
2023-11-16T21:41:28.847Z,1.42
2023-11-16T21:43:56.945Z,1.80
2023-11-16T21:46:24.786Z,2.83
2023-11-16T21:48:53.468Z,1.55
2023-11-16T21:51:22.633Z,1.48
2023-11-16T21:53:50.638Z,0.75
2023-11-16T21:56:18.389Z,3.17
2023-11-16T21:58:46.726Z,1.35
2023-11-16T22:01:15.163Z,1.92
2023-11-16T22:03:43.150Z,1.48
2023-11-16T22:06:11.922Z,2.33
2023-11-16T22:08:41.200Z,1.17
2023-11-16T22:11:11.533Z,1.55
2023-11-16T22:13:39.342Z,0.90
2023-11-16T22:16:08.065Z,0.93
2023-11-16T22:18:38.070Z,1.25
2023-11-16T22:21:07.024Z,0.85
2023-11-16T22:23:34.712Z,0.98
2023-11-16T22:26:05.134Z,2.33
2023-11-16T22:28:32.908Z,1.17
2023-11-16T22:31:00.930Z,1.20
2023-11-16T22:33:28.807Z,0.80
2023-11-16T22:35:57.674Z,1.00
2023-11-16T22:38:25.382Z,1.42
2023-11-16T22:40:53.086Z,1.48
2023-11-16T22:43:22.234Z,0.60
2023-11-16T22:45:50.042Z,1.30
2023-11-16T22:48:17.912Z,1.13
2023-11-16T22:50:45.734Z,0.65
2023-11-16T22:53:13.438Z,0.73
2023-11-16T22:55:41.348Z,0.43
2023-11-16T22:58:09.085Z,1.27
2023-11-16T23:00:46.979Z,0.60
2023-11-16T23:03:17.844Z,1.30
2023-11-16T23:05:46.566Z,1.15
2023-11-16T23:08:16.121Z,1.05
2023-11-16T23:10:43.898Z,0.50
2023-11-16T23:13:13.304Z,0.93
2023-11-16T23:15:43.855Z,1.02
2023-11-16T23:18:12.282Z,1.05
2023-11-16T23:20:42.625Z,0.73
2023-11-16T23:23:11.027Z,0.80
2023-11-16T23:25:41.577Z,0.93
2023-11-16T23:28:09.936Z,1.58
2023-11-16T23:30:39.809Z,1.33
2023-11-16T23:33:10.077Z,2.53
2023-11-16T23:35:38.111Z,0.95
2023-11-16T23:38:06.353Z,0.77
2023-11-16T23:40:34.198Z,0.88
2023-11-16T23:43:01.954Z,0.95
2023-11-16T23:45:29.711Z,1.95
2023-11-16T23:47:58.094Z,1.38
2023-11-16T23:50:27.318Z,1.27
2023-11-16T23:52:55.338Z,0.88
2023-11-16T23:55:23.116Z,1.23
2023-11-16T23:57:50.884Z,1.08
